Davis, West Virginia
Current Conditions -  °F | °C
As of 10:51 PM on Monday 20 Oct 2014 (Local Time) from KEKN Reporting Station
Overcast Overcast  
Wind Chill: 48°   Ceiling: 5000
Heat Index: 48°   Visibility: 10mi
Dew Point: 47°   Wind: 0mph
Humidity: 96%   Direction: NA
Pressure: 29.95"   Gusts: NA
Location:  39.13°N, 79.46°W
Report Text: KEKN 210251Z AUTO 00000KT 10SM FEW044 OVC050 09/08 A2995 RMK AO2 RAE30 SLP154 P0001 60001 T00890083 56001 TSNO
Loading
Personal Weather Stations






























Interactive Weather Map
Tropical Storm Tracking
New forecast layout! Learn more

10-Day Weather Forecast

Advertisements
Track Severe Weather on mobile